Time;durP1;ratioP1;P1;durP2;ratioP2;P2;SDS_P1;SDS_P2;PMS_P1;PMS_P2;Temp;Humidity;BMP_temperature;BMP_pressure;BME280_temperature;BME280_humidity;BME280_pressure;Samples;Min_cycle;Max_cycle;Signal;HPM_P1;HPM_P2
2022/08/15 00:00:33;;;;;;;8.57;7.15;;;;;;;29.60;41.04;100388.31;5014594;28;20121;-74
2022/08/15 00:02:59;;;;;;;13.93;8.00;;;;;;;29.50;40.82;100384.94;5014333;28;20034;-74
2022/08/15 00:05:24;;;;;;;10.40;7.82;;;;;;;29.55;41.00;100391.38;5013454;28;20081;-74
2022/08/15 00:07:50;;;;;;;8.50;7.57;;;;;;;29.46;41.11;100386.06;5014594;28;20034;-74
2022/08/15 00:10:21;;;;;;;10.50;8.60;;;;;;;29.52;40.94;100381.03;5014371;28;20030;-72
2022/08/15 00:12:48;;;;;;;10.63;8.80;;;;;;;29.42;41.43;100377.66;5014821;28;20116;-73
2022/08/15 00:15:17;;;;;;;12.15;8.45;;;;;;;29.35;41.17;100374.72;5014012;28;20037;-74
2022/08/15 00:17:42;;;;;;;11.25;8.77;;;;;;;29.33;41.29;100377.06;5014348;28;20038;-73
2022/08/15 00:20:10;;;;;;;13.13;8.32;;;;;;;29.27;41.42;100374.94;5014310;28;20038;-74
2022/08/15 00:22:48;;;;;;;12.93;8.55;;;;;;;29.16;41.69;100363.63;5014156;28;20041;-73
2022/08/15 00:25:16;;;;;;;8.50;7.63;;;;;;;29.15;42.10;100370.31;5014219;28;20025;-72
2022/08/15 00:27:41;;;;;;;9.57;7.63;;;;;;;29.15;41.72;100372.31;5014761;28;20117;-75
2022/08/15 00:30:12;;;;;;;10.00;8.15;;;;;;;29.22;41.46;100364.16;5013964;28;20133;-73
2022/08/15 00:32:37;;;;;;;10.13;7.40;;;;;;;29.11;42.41;100361.09;5013863;28;20033;-75
2022/08/15 00:35:35;;;;;;;14.98;7.93;;;;;;;29.10;42.03;100355.94;4996161;28;20030;-74
2022/08/15 00:37:55;;;;;;;8.82;7.68;;;;;;;28.96;42.71;100350.06;5013208;28;20100;-73
2022/08/15 00:40:25;;;;;;;12.15;8.05;;;;;;;28.94;42.65;100360.69;5013906;28;20034;-73
2022/08/15 00:42:50;;;;;;;10.50;8.43;;;;;;;28.98;42.66;100356.03;5014236;28;20390;-73
2022/08/15 00:45:18;;;;;;;8.27;7.35;;;;;;;29.01;42.35;100344.25;5013698;28;20034;-74
2022/08/15 00:48:41;;;;;;;10.70;7.90;;;;;;;28.96;41.90;100348.09;5013790;28;20045;-75
2022/08/15 00:50:28;;;;;;;8.35;7.45;;;;;;;28.86;42.50;100345.06;5013732;28;20053;-75
2022/08/15 00:52:54;;;;;;;9.63;7.95;;;;;;;28.71;42.69;100349.47;5013630;28;20517;-74
2022/08/15 00:55:20;;;;;;;11.32;8.27;;;;;;;28.67;43.40;100339.47;5013741;28;20029;-74
2022/08/15 00:57:47;;;;;;;13.63;9.10;;;;;;;28.69;44.26;100337.16;5014006;28;20110;-75
2022/08/15 01:00:19;;;;;;;13.05;8.13;;;;;;;28.50;44.62;100338.66;5013489;28;20121;-73
2022/08/15 01:02:45;;;;;;;10.02;7.45;;;;;;;28.42;45.29;100344.38;5013414;28;20036;-74
2022/08/15 01:05:13;;;;;;;13.50;7.53;;;;;;;28.33;45.96;100352.84;5013529;28;20486;-73
2022/08/15 01:07:40;;;;;;;11.27;8.25;;;;;;;28.24;45.64;100337.59;5013553;28;20437;-74
2022/08/15 01:10:07;;;;;;;10.98;8.40;;;;;;;28.23;45.80;100331.25;5014009;28;20454;-73
2022/08/15 01:12:33;;;;;;;9.20;8.25;;;;;;;28.24;45.75;100338.41;5012857;28;20615;-73
2022/08/15 01:15:08;;;;;;;13.80;8.98;;;;;;;28.16;46.16;100333.03;5012755;28;20034;-73
2022/08/15 01:17:33;;;;;;;11.77;9.25;;;;;;;28.14;46.57;100332.56;5012889;28;20083;-74
2022/08/15 01:20:23;;;;;;;12.32;9.07;;;;;;;28.01;45.99;100336.56;5013127;28;20026;-74
2022/08/15 01:22:51;;;;;;;13.63;9.18;;;;;;;27.96;46.34;100323.00;5012938;28;20033;-74
2022/08/15 01:25:23;;;;;;;11.73;9.13;;;;;;;28.08;46.04;100334.81;5012933;28;20041;-74
2022/08/15 01:27:51;;;;;;;11.65;9.45;;;;;;;28.11;45.58;100334.06;5013262;28;20038;-74
2022/08/15 01:30:22;;;;;;;10.80;8.82;;;;;;;28.03;46.30;100326.75;5013015;28;20137;-73
2022/08/15 01:32:47;;;;;;;9.13;8.20;;;;;;;28.08;45.83;100323.75;5012528;28;20084;-74
2022/08/15 01:35:13;;;;;;;10.95;8.63;;;;;;;28.11;46.10;100323.03;4995031;28;20390;-73
2022/08/15 01:37:40;;;;;;;10.80;9.15;;;;;;;27.92;47.20;100333.13;5013222;28;20041;-73
2022/08/15 01:40:36;;;;;;;14.27;9.18;;;;;;;28.09;45.54;100327.31;5013567;28;20536;-74
2022/08/15 01:43:06;;;;;;;10.95;8.50;;;;;;;27.96;46.71;100325.75;5011433;28;20034;-74
2022/08/15 01:45:34;;;;;;;9.38;8.48;;;;;;;27.97;46.92;100327.38;5012874;28;20418;-74
2022/08/15 01:48:09;;;;;;;11.85;8.23;;;;;;;27.95;46.39;100330.47;5012604;28;20040;-75
2022/08/15 01:50:49;;;;;;;9.63;8.63;;;;;;;27.81;47.44;100328.09;5012943;28;20049;-75
2022/08/15 01:53:17;;;;;;;;;;;;;;;27.83;47.20;100325.00;5013029;28;20038;-73
2022/08/15 01:55:52;;;;;;;10.85;8.52;;;;;;;27.88;47.61;100330.28;5012968;28;19930;-74
2022/08/15 01:58:18;;;;;;;10.65;8.88;;;;;;;27.94;47.45;100330.81;5012717;28;20062;-74
2022/08/15 02:01:12;;;;;;;11.07;8.50;;;;;;;28.06;47.22;100339.88;5013554;28;20025;-73
2022/08/15 02:03:39;;;;;;;12.15;9.15;;;;;;;27.97;47.48;100327.38;5010591;28;20453;-74
2022/08/15 02:06:12;;;;;;;9.55;8.52;;;;;;;28.10;46.53;100326.16;5012373;28;20034;-73
2022/08/15 02:08:39;;;;;;;11.25;8.68;;;;;;;28.00;47.26;100321.94;4993952;28;20124;-73
2022/08/15 02:11:13;;;;;;;12.05;9.38;;;;;;;28.19;46.81;100313.75;5012302;28;20064;-74
2022/08/15 02:13:41;;;;;;;11.43;9.05;;;;;;;28.12;46.96;100327.41;5012183;28;20513;-73
2022/08/15 02:16:06;;;;;;;11.75;8.98;;;;;;;28.10;46.49;100320.63;5005307;28;20052;-72
2022/08/15 02:18:32;;;;;;;9.90;8.45;;;;;;;28.13;46.89;100330.94;4992648;28;20042;-73
2022/08/15 02:20:57;;;;;;;13.05;7.93;;;;;;;28.14;46.48;100325.09;4992408;28;20050;-76
2022/08/15 02:23:24;;;;;;;11.15;8.65;;;;;;;28.23;46.78;100331.25;4992591;28;20030;-75
2022/08/15 02:25:51;;;;;;;12.68;9.50;;;;;;;28.24;46.13;100332.06;4992590;28;20093;-73
2022/08/15 02:28:18;;;;;;;10.73;8.70;;;;;;;28.33;46.03;100324.38;5004818;28;20628;-75
2022/08/15 02:30:44;;;;;;;10.35;7.93;;;;;;;28.39;45.94;100322.97;5012225;28;20024;-74
2022/08/15 02:33:10;;;;;;;10.55;8.43;;;;;;;28.43;45.96;100332.16;5011758;28;20066;-73
2022/08/15 02:35:36;;;;;;;9.98;8.93;;;;;;;28.44;45.59;100315.19;5012172;28;20030;-74
2022/08/15 02:38:05;;;;;;;15.05;9.52;;;;;;;28.45;45.34;100325.09;4994832;28;20041;-75
2022/08/15 02:40:32;;;;;;;9.82;8.82;;;;;;;28.48;44.78;100318.06;5012603;28;20037;-75
2022/08/15 02:43:07;;;;;;;11.27;9.48;;;;;;;28.49;44.82;100319.66;5011252;28;20482;-74
2022/08/15 02:45:37;;;;;;;11.90;9.60;;;;;;;28.47;44.96;100319.22;5012074;28;20525;-74
2022/08/15 02:48:11;;;;;;;10.20;9.13;;;;;;;28.39;44.96;100318.25;5011760;28;20531;-75
2022/08/15 02:50:37;;;;;;;12.43;9.68;;;;;;;28.43;44.60;100310.84;5012118;28;20041;-74
2022/08/15 02:53:18;;;;;;;13.80;9.32;;;;;;;28.29;44.68;100310.47;5011883;28;20636;-75
2022/08/15 02:55:46;;;;;;;12.98;9.88;;;;;;;28.34;44.96;100310.19;4992273;28;20068;-74
2022/08/15 02:58:13;;;;;;;12.52;9.73;;;;;;;28.30;44.37;100303.00;4992006;28;20474;-75
2022/08/15 03:00:41;;;;;;;11.18;10.07;;;;;;;28.26;45.17;100304.88;4991953;28;20038;-73
2022/08/15 03:03:10;;;;;;;11.45;9.05;;;;;;;28.16;45.20;100300.69;4991329;28;20034;-74
2022/08/15 03:05:40;;;;;;;10.93;9.73;;;;;;;28.14;44.89;100282.84;4991731;28;20113;-75
2022/08/15 03:08:06;;;;;;;12.05;10.68;;;;;;;28.05;44.47;100282.22;4991527;28;20410;-75
2022/08/15 03:10:31;;;;;;;11.40;9.90;;;;;;;27.94;45.63;100287.41;4990097;28;20507;-74
2022/08/15 03:13:03;;;;;;;12.88;10.40;;;;;;;27.93;45.42;100285.81;4991748;28;20070;-74
2022/08/15 03:15:38;;;;;;;13.48;10.35;;;;;;;28.01;45.37;100286.84;4993482;28;20645;-75
2022/08/15 03:18:04;;;;;;;12.02;9.93;;;;;;;27.96;45.02;100284.31;5011087;28;20124;-73
2022/08/15 03:20:30;;;;;;;13.65;9.93;;;;;;;28.04;44.41;100280.59;5012000;28;20475;-74
2022/08/15 03:22:55;;;;;;;13.18;9.68;;;;;;;27.98;45.12;100276.50;5011118;28;20038;-74
2022/08/15 03:25:25;;;;;;;10.55;9.55;;;;;;;27.89;44.84;100276.66;4992124;28;20022;-74
2022/08/15 03:27:51;;;;;;;10.80;9.60;;;;;;;27.91;45.26;100273.53;5002740;28;20034;-74
2022/08/15 03:30:18;;;;;;;12.43;9.77;;;;;;;27.85;45.44;100267.47;5011736;28;20074;-74
2022/08/15 03:32:55;;;;;;;11.57;9.82;;;;;;;27.78;45.05;100270.81;5011425;28;20065;-73
2022/08/15 03:35:25;;;;;;;14.55;9.20;;;;;;;27.82;44.94;100259.88;5019509;28;20115;-75
2022/08/15 03:37:51;;;;;;;9.63;8.55;;;;;;;27.85;45.47;100264.69;5031345;28;20034;-74
2022/08/15 03:40:16;;;;;;;10.38;8.43;;;;;;;27.83;44.80;100263.44;5034986;28;20024;-74
2022/08/15 03:43:00;;;;;;;9.35;8.32;;;;;;;27.82;44.83;100273.69;5034985;28;20052;-74
2022/08/15 03:45:27;;;;;;;10.32;8.13;;;;;;;27.78;44.88;100264.50;5034591;28;20087;-74
2022/08/15 03:47:53;;;;;;;11.98;7.28;;;;;;;27.86;44.93;100262.72;5034541;28;20037;-74
2022/08/15 03:50:20;;;;;;;8.85;7.13;;;;;;;27.83;45.58;100258.72;5034209;28;20103;-75
2022/08/15 03:52:55;;;;;;;9.88;8.07;;;;;;;27.68;45.49;100259.47;5034863;28;20034;-73
2022/08/15 03:55:24;;;;;;;10.35;8.60;;;;;;;27.37;47.16;100253.88;5011807;28;20029;-73
2022/08/15 03:57:50;;;;;;;15.00;9.98;;;;;;;27.41;47.57;100257.53;4998262;28;20046;-74
2022/08/15 04:00:17;;;;;;;10.05;8.90;;;;;;;27.38;47.40;100253.53;5021704;28;20034;-74
2022/08/15 04:02:43;;;;;;;10.93;9.85;;;;;;;27.31;47.65;100252.50;5009245;28;20117;-73
2022/08/15 04:05:09;;;;;;;10.88;9.20;;;;;;;27.17;48.45;100255.66;4993483;28;20050;-70
2022/08/15 04:07:36;;;;;;;13.25;10.55;;;;;;;27.15;48.88;100251.63;4992712;28;20066;-72
2022/08/15 04:10:07;;;;;;;11.80;9.77;;;;;;;26.99;48.97;100259.03;5015035;28;20458;-72
2022/08/15 04:12:38;;;;;;;10.75;9.52;;;;;;;27.10;48.43;100257.41;5012097;28;20080;-73
2022/08/15 04:15:05;;;;;;;10.82;9.73;;;;;;;27.05;48.56;100255.69;5018219;28;20056;-73
2022/08/15 04:17:30;;;;;;;11.48;9.65;;;;;;;26.98;48.99;100249.97;5015095;28;20544;-72
2022/08/15 04:19:56;;;;;;;11.15;9.95;;;;;;;26.98;48.66;100258.22;5014095;28;20042;-72
2022/08/15 04:22:34;;;;;;;10.52;9.15;;;;;;;26.93;48.98;100255.69;5014049;28;20470;-71
2022/08/15 04:25:01;;;;;;;10.70;9.52;;;;;;;27.03;48.63;100252.47;5013946;28;20056;-69
2022/08/15 04:27:27;;;;;;;11.32;9.50;;;;;;;27.15;48.13;100259.91;5007874;28;20038;-72
2022/08/15 04:29:52;;;;;;;10.20;9.20;;;;;;;27.18;47.70;100267.50;5004146;28;20027;-72
2022/08/15 04:32:20;;;;;;;10.98;9.82;;;;;;;27.08;48.93;100262.47;4990684;28;20065;-72
2022/08/15 04:34:46;;;;;;;11.10;10.02;;;;;;;26.99;49.55;100270.84;5020118;28;20436;-74
2022/08/15 04:37:12;;;;;;;13.10;9.63;;;;;;;27.11;49.16;100268.06;5025747;28;20041;-72
2022/08/15 04:39:38;;;;;;;18.20;11.27;;;;;;;26.53;51.29;100277.69;5015239;28;20030;-72
2022/08/15 04:42:03;;;;;;;17.50;11.93;;;;;;;26.83;49.92;100284.56;5014787;28;20088;-73
2022/08/15 04:44:29;;;;;;;12.38;11.18;;;;;;;26.92;49.56;100281.69;5026264;28;20038;-73
2022/08/15 04:46:55;;;;;;;18.02;13.80;;;;;;;26.62;50.30;100296.84;5032902;28;20038;-72
2022/08/15 04:49:20;;;;;;;13.02;11.60;;;;;;;26.56;50.35;100292.72;5032960;28;20030;-72
2022/08/15 04:51:45;;;;;;;16.77;12.20;;;;;;;26.86;49.42;100311.47;5033482;28;20367;-74
2022/08/15 04:54:11;;;;;;;15.45;13.10;;;;;;;26.75;49.92;100307.53;5032835;28;20501;-72
2022/08/15 04:56:36;;;;;;;15.32;12.52;;;;;;;26.96;49.11;100296.41;5033013;28;20085;-72
2022/08/15 04:59:02;;;;;;;14.10;11.68;;;;;;;27.03;48.75;100296.59;5033041;28;20042;-72
2022/08/15 05:01:27;;;;;;;15.27;12.70;;;;;;;27.13;48.34;100284.28;5033086;28;20385;-73
2022/08/15 05:03:53;;;;;;;13.27;11.95;;;;;;;27.34;47.51;100284.94;5033440;28;20520;-71
2022/08/15 05:06:18;;;;;;;15.98;12.15;;;;;;;27.46;47.47;100282.16;5032914;28;20121;-73
2022/08/15 05:08:44;;;;;;;13.77;12.15;;;;;;;27.41;47.54;100283.19;5033350;28;20363;-72
2022/08/15 05:11:12;;;;;;;14.32;11.32;;;;;;;27.52;47.49;100272.44;5033290;28;20038;-72
2022/08/15 05:13:39;;;;;;;14.07;11.93;;;;;;;27.51;47.57;100271.66;5033136;28;20041;-72
2022/08/15 05:16:07;;;;;;;13.52;10.68;;;;;;;27.57;47.29;100269.44;5026968;28;20029;-71
2022/08/15 05:18:38;;;;;;;18.13;11.45;;;;;;;27.68;46.86;100268.56;5029018;28;20048;-72
2022/08/15 05:21:04;;;;;;;14.02;10.88;;;;;;;27.63;46.87;100260.56;5031064;28;20041;-71
2022/08/15 05:23:31;;;;;;;11.88;9.98;;;;;;;27.72;47.40;100263.16;5032644;28;20100;-73
2022/08/15 05:25:58;;;;;;;13.10;10.95;;;;;;;27.86;46.79;100258.00;5032584;28;20049;-73
2022/08/15 05:28:24;;;;;;;14.85;10.75;;;;;;;27.91;46.37;100254.97;5032727;28;20091;-74
2022/08/15 05:30:52;;;;;;;14.95;9.95;;;;;;;28.00;45.87;100260.34;5031822;28;20120;-75
2022/08/15 05:33:23;;;;;;;11.82;10.57;;;;;;;27.79;46.51;100269.66;5032189;28;20038;-73
2022/08/15 05:35:53;;;;;;;17.83;10.90;;;;;;;27.89;46.29;100271.13;5032060;28;20037;-72
2022/08/15 05:38:35;;;;;;;15.73;10.95;;;;;;;27.97;46.96;100270.16;5032735;28;20125;-71
2022/08/15 05:41:24;;;;;;;14.02;10.82;;;;;;;28.15;45.66;100265.09;5023489;28;20035;-72
2022/08/15 05:44:19;;;;;;;12.75;11.05;;;;;;;28.03;46.79;100271.50;5031537;28;20117;-71
2022/08/15 05:47:05;;;;;;;13.88;11.43;;;;;;;28.10;46.17;100279.19;5029879;28;20037;-73
2022/08/15 05:49:43;;;;;;;12.57;11.27;;;;;;;28.17;45.02;100276.59;5032023;28;20084;-73
2022/08/15 05:52:27;;;;;;;14.75;11.23;;;;;;;28.24;44.95;100269.31;5032619;28;20048;-71
2022/08/15 05:55:08;;;;;;;15.25;11.65;;;;;;;28.21;45.37;100270.00;5029247;28;20045;-71
2022/08/15 05:57:38;;;;;;;17.40;13.00;;;;;;;28.29;44.54;100274.53;5031964;28;20037;-72
2022/08/15 06:00:10;;;;;;;16.70;13.00;;;;;;;28.23;44.27;100269.63;5032161;28;20128;-72
2022/08/15 06:02:45;;;;;;;14.57;12.40;;;;;;;28.38;43.73;100269.63;5032135;28;20042;-71
2022/08/15 06:05:29;;;;;;;14.65;11.82;;;;;;;28.39;44.17;100276.78;5031855;28;20039;-71
2022/08/15 06:07:58;;;;;;;14.30;11.88;;;;;;;28.52;43.72;100266.44;5032149;28;20080;-72
2022/08/15 06:10:35;;;;;;;14.68;11.55;;;;;;;28.44;43.35;100273.72;5031917;28;20041;-73
2022/08/15 06:13:09;;;;;;;13.75;11.52;;;;;;;28.63;42.99;100275.78;5021178;28;20048;-72
2022/08/15 06:15:48;;;;;;;15.02;11.93;;;;;;;28.85;42.45;100288.97;5011645;28;20417;-72
2022/08/15 06:18:17;;;;;;;14.50;12.40;;;;;;;28.82;42.67;100281.38;5012207;28;20041;-73
2022/08/15 06:20:56;;;;;;;15.02;12.95;;;;;;;28.91;42.06;100284.75;5011828;28;20387;-73
2022/08/15 06:23:42;;;;;;;15.38;12.10;;;;;;;28.84;42.62;100283.78;5012131;28;20061;-74
2022/08/15 06:26:27;;;;;;;16.83;13.82;;;;;;;28.75;42.54;100288.72;5023571;28;20041;-73
2022/08/15 06:29:11;;;;;;;16.80;13.18;;;;;;;28.89;41.85;100289.03;5026731;28;20038;-71
2022/08/15 06:31:39;;;;;;;15.82;13.18;;;;;;;28.83;42.65;100287.72;5031629;28;20079;-73
2022/08/15 06:34:35;;;;;;;20.95;14.70;;;;;;;28.77;42.23;100289.16;5031582;28;20389;-73
2022/08/15 06:37:14;;;;;;;20.75;14.93;;;;;;;27.63;45.93;100293.69;5031365;28;20045;-71
2022/08/15 06:40:00;;;;;;;19.50;16.02;;;;;;;28.61;43.88;100300.25;5031836;28;20060;-72
2022/08/15 06:42:34;;;;;;;18.92;15.43;;;;;;;28.27;44.90;100307.25;5031186;28;20075;-73
2022/08/15 06:45:04;;;;;;;18.55;14.93;;;;;;;28.39;44.65;100295.31;5031284;28;20490;-72
2022/08/15 06:47:31;;;;;;;17.33;15.20;;;;;;;28.03;45.84;100309.41;5031843;28;20119;-72
2022/08/15 06:50:04;;;;;;;16.70;14.75;;;;;;;28.62;44.18;100312.91;4996852;28;20402;-71
2022/08/15 06:52:30;;;;;;;20.13;13.73;;;;;;;28.68;44.29;100305.94;5032100;28;20060;-71
2022/08/15 06:54:58;;;;;;;18.35;14.10;;;;;;;28.60;44.23;100304.97;5033061;28;20021;-74
2022/08/15 06:57:47;;;;;;;17.83;13.25;;;;;;;28.93;43.42;100301.00;5014276;28;20153;-73
2022/08/15 07:00:23;;;;;;;14.23;12.73;;;;;;;28.81;43.40;100298.34;5031710;28;20067;-73
2022/08/15 07:03:30;;;;;;;20.95;12.88;;;;;;;28.82;43.26;100288.88;5031934;28;20033;-75
2022/08/15 07:05:57;;;;;;;18.30;13.00;;;;;;;29.18;42.48;100281.03;5031744;28;20374;-73
2022/08/15 07:08:44;;;;;;;14.15;12.40;;;;;;;29.25;42.52;100286.72;5020953;28;20057;-72
2022/08/15 07:11:28;;;;;;;14.75;11.82;;;;;;;29.47;42.24;100283.22;5028029;28;20124;-74
2022/08/15 07:14:21;;;;;;;12.80;11.43;;;;;;;29.40;42.13;100290.59;5012486;28;20560;-74
2022/08/15 07:17:27;;;;;;;14.02;11.50;;;;;;;29.33;42.14;100295.97;5015546;28;20030;-73
2022/08/15 07:19:53;;;;;;;14.55;11.50;;;;;;;29.27;42.01;100295.47;5015574;28;20063;-73
2022/08/15 07:22:18;;;;;;;14.55;11.32;;;;;;;29.23;41.89;100288.22;5014878;28;20064;-73
2022/08/15 07:24:52;;;;;;;16.25;10.55;;;;;;;29.26;41.61;100291.09;5015849;28;20018;-73
2022/08/15 07:27:24;;;;;;;14.27;11.30;;;;;;;29.08;42.08;100286.31;5015492;28;20030;-74
2022/08/15 07:29:58;;;;;;;14.73;11.25;;;;;;;29.80;40.87;100285.47;5015575;28;20046;-73
2022/08/15 07:32:44;;;;;;;15.25;10.32;;;;;;;29.94;41.03;100291.28;5015419;28;20068;-72
2022/08/15 07:35:09;;;;;;;15.32;10.60;;;;;;;29.91;39.96;100286.50;5015638;28;20540;-73
2022/08/15 07:37:37;;;;;;;13.90;11.43;;;;;;;29.52;40.65;100296.00;5031973;28;20120;-74
2022/08/15 07:40:17;;;;;;;15.50;11.30;;;;;;;29.45;40.54;100290.28;5034670;28;20115;-73
2022/08/15 07:42:44;;;;;;;16.63;11.07;;;;;;;29.07;40.72;100296.56;5030263;28;20564;-73
2022/08/15 07:45:20;;;;;;;13.43;10.88;;;;;;;29.67;40.51;100286.78;5034430;28;20080;-74
2022/08/15 07:47:56;;;;;;;12.30;10.98;;;;;;;29.91;39.42;100292.03;5031455;28;20065;-72
2022/08/15 07:50:35;;;;;;;19.05;12.38;;;;;;;29.91;39.49;100292.03;5030454;28;20079;-73
2022/08/15 07:53:22;;;;;;;14.30;11.15;;;;;;;29.76;40.40;100295.69;5029741;28;20041;-74
2022/08/15 07:56:04;;;;;;;13.13;11.63;;;;;;;30.15;39.93;100301.97;5031847;28;20048;-72
2022/08/15 07:58:32;;;;;;;16.42;12.27;;;;;;;30.12;39.60;100289.63;5032365;28;20052;-73
2022/08/15 08:01:22;;;;;;;13.32;11.52;;;;;;;30.41;39.21;100288.16;5029825;28;20028;-73
2022/08/15 08:04:03;;;;;;;11.43;10.13;;;;;;;30.49;39.23;100291.84;4995519;28;20513;-74
2022/08/15 08:06:31;;;;;;;12.07;10.88;;;;;;;30.17;39.68;100299.63;5013287;28;20137;-73
2022/08/15 08:09:09;;;;;;;12.55;11.25;;;;;;;30.04;40.18;100300.97;4996601;28;20041;-72
2022/08/15 08:11:48;;;;;;;15.40;12.75;;;;;;;29.92;41.13;100304.69;5014538;28;20411;-73
2022/08/15 08:14:22;;;;;;;13.45;11.85;;;;;;;30.05;39.88;100297.81;5014699;28;20038;-75
2022/08/15 08:16:59;;;;;;;14.88;11.90;;;;;;;30.30;40.32;100310.19;5014227;28;20065;-73
2022/08/15 08:19:50;;;;;;;12.05;10.45;;;;;;;29.95;40.54;100308.72;5014834;28;20037;-74
2022/08/15 08:22:30;;;;;;;11.93;10.70;;;;;;;29.94;40.75;100315.41;5012962;28;20108;-73
2022/08/15 08:25:09;;;;;;;13.05;11.30;;;;;;;29.49;41.71;100321.63;5011532;28;20024;-73
2022/08/15 08:27:57;;;;;;;14.57;12.00;;;;;;;29.37;42.88;100327.28;5016598;28;20061;-73
2022/08/15 08:30:25;;;;;;;13.77;10.40;;;;;;;30.27;40.42;100333.06;5012283;28;20038;-73
2022/08/15 08:33:04;;;;;;;13.13;11.73;;;;;;;30.06;41.32;100331.88;5034056;28;20026;-73
2022/08/15 08:35:43;;;;;;;12.75;10.60;;;;;;;30.11;42.19;100326.81;5031668;28;20519;-72
2022/08/15 08:38:42;;;;;;;14.85;11.45;;;;;;;30.44;41.25;100331.00;5014192;28;20077;-74
2022/08/15 08:41:35;;;;;;;13.98;11.65;;;;;;;30.59;41.27;100336.41;5019038;28;20449;-73
2022/08/15 08:44:13;;;;;;;16.15;13.02;;;;;;;30.47;41.96;100335.84;5028883;28;20029;-73
2022/08/15 08:46:41;;;;;;;14.02;12.00;;;;;;;30.76;41.44;100344.22;5033595;28;20048;-73
2022/08/15 08:49:23;;;;;;;12.32;11.00;;;;;;;31.07;40.60;100349.50;5034280;28;20033;-73
2022/08/15 08:52:15;;;;;;;13.60;11.43;;;;;;;30.78;41.53;100358.53;5014318;28;20095;-74
2022/08/15 08:55:02;;;;;;;17.35;11.02;;;;;;;30.44;41.80;100351.22;5016934;28;20048;-74
2022/08/15 08:57:33;;;;;;;14.93;10.32;;;;;;;30.82;41.39;100348.28;5033019;28;20042;-77
2022/08/15 09:00:19;;;;;;;13.98;10.63;;;;;;;31.08;41.21;100347.50;5023954;28;20038;-72
2022/08/15 09:03:06;;;;;;;17.88;10.63;;;;;;;30.83;41.21;100349.94;5030985;28;20053;-74
2022/08/15 09:05:49;;;;;;;11.35;10.18;;;;;;;31.11;40.60;100344.00;5030994;28;20529;-73
2022/08/15 09:08:24;;;;;;;11.82;9.82;;;;;;;31.42;39.43;100357.56;5028341;28;20036;-76
2022/08/15 09:10:54;;;;;;;11.88;10.10;;;;;;;30.79;40.82;100349.03;5034154;28;20056;-75
2022/08/15 09:13:34;;;;;;;14.57;9.48;;;;;;;30.82;40.40;100351.06;5022672;28;20118;-75
2022/08/15 09:16:23;;;;;;;14.98;8.85;;;;;;;31.03;40.18;100353.41;5018882;28;20030;-77
2022/08/15 09:18:51;;;;;;;12.85;8.13;;;;;;;31.33;39.71;100361.75;5027828;28;20060;-75
2022/08/15 09:21:17;;;;;;;13.52;7.53;;;;;;;31.64;38.62;100356.66;5025284;28;20057;-77
2022/08/15 09:23:45;;;;;;;10.52;8.30;;;;;;;31.60;38.67;100343.91;5029724;28;20187;-76
2022/08/15 09:26:17;;;;;;;17.00;8.20;;;;;;;31.11;39.22;100353.09;5029648;28;20040;-75
2022/08/15 09:28:47;;;;;;;10.23;6.60;;;;;;;31.99;38.15;100345.97;5008740;28;20542;-75
2022/08/15 09:31:20;;;;;;;11.20;7.72;;;;;;;30.63;39.00;100356.69;5029455;28;20047;-75
2022/08/15 09:34:10;;;;;;;7.68;5.65;;;;;;;30.55;38.27;100351.41;5030295;28;20045;-74
2022/08/15 09:36:45;;;;;;;;;;;;;;;31.17;36.87;100359.94;5015806;28;20552;-74
2022/08/15 09:39:43;;;;;;;11.73;5.90;;;;;;;31.40;36.65;100356.31;5031491;28;19940;-74
2022/08/15 09:42:49;;;;;;;7.20;4.75;;;;;;;31.09;36.41;100363.81;5028032;28;20037;-76
2022/08/15 09:45:23;;;;;;;6.15;4.78;;;;;;;30.61;36.03;100378.47;5031261;28;20038;-77
2022/08/15 09:47:48;;;;;;;7.07;4.55;;;;;;;31.40;34.69;100389.66;5029368;28;20052;-75
2022/08/15 09:50:34;;;;;;;13.10;4.85;;;;;;;32.00;33.97;100380.94;5030121;28;20120;-75
2022/08/15 09:53:23;;;;;;;9.40;5.03;;;;;;;31.38;35.03;100378.94;5025631;28;20504;-76
2022/08/15 09:55:51;;;;;;;6.60;4.07;;;;;;;31.76;35.25;100381.41;5028062;28;20397;-76
2022/08/15 09:58:31;;;;;;;6.28;3.88;;;;;;;31.30;34.20;100385.53;5004354;28;20029;-74
2022/08/15 10:01:08;;;;;;;8.75;4.20;;;;;;;30.73;35.55;100392.16;4995493;28;20036;-76
2022/08/15 10:03:45;;;;;;;5.30;4.15;;;;;;;31.14;35.00;100388.47;5011698;28;20069;-77
2022/08/15 10:06:25;;;;;;;6.35;4.20;;;;;;;31.19;35.04;100396.47;5010670;28;20044;-75
2022/08/15 10:08:53;;;;;;;6.25;4.05;;;;;;;31.29;34.94;100391.47;5010203;28;20482;-77
2022/08/15 10:11:38;;;;;;;5.35;3.50;;;;;;;31.24;34.84;100387.03;5009969;28;20056;-77
2022/08/15 10:14:06;;;;;;;4.22;3.22;;;;;;;30.71;35.26;100390.91;5020422;28;20442;-78
2022/08/15 10:16:40;;;;;;;5.82;3.58;;;;;;;31.41;34.20;100399.59;5015889;28;20030;-77
2022/08/15 10:19:25;;;;;;;4.85;3.60;;;;;;;31.87;33.96;100404.59;5009412;28;20141;-75
2022/08/15 10:21:51;;;;;;;4.72;3.58;;;;;;;31.65;33.73;100405.50;5009917;28;20534;-75
2022/08/15 10:24:38;;;;;;;8.00;3.83;;;;;;;31.81;33.76;100396.94;5021061;28;20030;-75
2022/08/15 10:27:10;;;;;;;10.80;3.42;;;;;;;32.32;33.32;100402.72;5000984;28;20136;-76
2022/08/15 10:29:39;;;;;;;5.60;3.60;;;;;;;32.10;34.11;100395.34;5028647;28;21106;-76
2022/08/15 10:32:18;;;;;;;8.07;3.08;;;;;;;32.44;33.18;100396.88;5018511;28;20115;-75
2022/08/15 10:35:02;;;;;;;14.73;3.87;;;;;;;32.32;33.50;100397.97;5026288;28;20083;-74
2022/08/15 10:37:33;;;;;;;5.40;2.90;;;;;;;32.76;32.05;100398.81;5025139;28;20397;-76
2022/08/15 10:40:24;;;;;;;9.93;3.55;;;;;;;33.09;31.12;100402.66;5028211;28;20009;-76
2022/08/15 10:43:01;;;;;;;6.50;3.03;;;;;;;32.46;32.00;100395.34;5024067;28;20477;-76
2022/08/15 10:45:59;;;;;;;4.13;3.22;;;;;;;32.49;32.88;100382.69;5021817;28;20116;-75
2022/08/15 10:48:48;;;;;;;7.07;4.05;;;;;;;32.45;32.17;100387.41;5023517;28;20569;-75
2022/08/15 10:51:23;;;;;;;6.10;3.90;;;;;;;33.15;30.85;100384.41;5029092;28;20136;-74
2022/08/15 10:54:10;;;;;;;6.13;3.28;;;;;;;33.00;31.21;100386.31;5026106;28;20658;-75
2022/08/15 10:56:38;;;;;;;4.13;2.63;;;;;;;32.99;30.83;100378.31;5026216;28;20038;-75
2022/08/15 10:59:12;;;;;;;4.70;2.88;;;;;;;33.11;30.84;100384.38;5025434;28;20041;-75
2022/08/15 11:01:39;;;;;;;5.88;3.20;;;;;;;32.69;30.89;100378.47;5025135;28;20037;-75
2022/08/15 11:04:21;;;;;;;9.13;3.63;;;;;;;32.58;31.13;100383.94;5028993;28;20029;-72
2022/08/15 11:06:46;;;;;;;9.50;2.55;;;;;;;32.11;30.75;100372.72;5024799;28;20141;-73
2022/08/15 11:09:18;;;;;;;6.78;3.70;;;;;;;31.63;31.35;100379.25;5027127;28;20754;-73
2022/08/15 11:11:57;;;;;;;6.32;2.83;;;;;;;33.23;29.96;100380.47;5027739;28;20116;-72
2022/08/15 11:14:28;;;;;;;4.78;2.85;;;;;;;33.53;29.33;100383.88;5016780;28;20042;-72
2022/08/15 11:16:55;;;;;;;5.65;3.95;;;;;;;32.65;29.49;100388.75;5022324;28;20076;-71
2022/08/15 11:19:28;;;;;;;4.20;2.83;;;;;;;32.90;29.42;100384.22;5027493;28;20033;-72
2022/08/15 11:21:57;;;;;;;8.52;2.88;;;;;;;32.80;29.60;100385.75;5023840;28;20092;-73
2022/08/15 11:24:30;;;;;;;8.43;2.10;;;;;;;32.98;30.15;100380.34;5021001;28;20080;-73
2022/08/15 11:27:17;;;;;;;7.10;2.50;;;;;;;32.80;31.18;100382.94;5027106;28;20447;-72
2022/08/15 11:29:44;;;;;;;5.28;3.30;;;;;;;32.97;30.75;100383.47;5027564;28;20112;-71
2022/08/15 11:32:24;;;;;;;3.53;2.15;;;;;;;33.35;29.75;100380.16;5025504;28;20055;-71
2022/08/15 11:34:51;;;;;;;10.23;2.63;;;;;;;33.60;28.75;100379.13;5021480;28;20068;-72
2022/08/15 11:37:22;;;;;;;6.07;2.20;;;;;;;33.98;28.28;100374.13;5019780;28;20989;-72
2022/08/15 11:39:58;;;;;;;7.97;2.65;;;;;;;33.62;28.35;100378.72;5027343;28;20033;-73
2022/08/15 11:42:27;;;;;;;7.28;2.35;;;;;;;33.38;29.02;100373.78;5026954;28;20034;-73
2022/08/15 11:45:02;;;;;;;6.23;2.17;;;;;;;33.18;29.17;100376.06;5019577;28;20472;-73